sensor_id;sensor_type;location;lat;lon;timestamp;pressure;altitude;pressure_sealevel;temperature;humidity
60228;BME280;46091;46.512;6.626;2023-04-01T04:56:19;96291.94;;;11.26;62.63
60228;BME280;46091;46.512;6.626;2023-04-01T04:58:22;96296.28;;;11.52;62.66
60228;BME280;46091;46.512;6.626;2023-04-01T05:00:25;96294.13;;;11.74;62.40
60228;BME280;46091;46.512;6.626;2023-04-01T05:02:28;96277.22;;;11.82;62.11
60228;BME280;46091;46.512;6.626;2023-04-01T05:04:34;96283.22;;;12.02;61.79
60228;BME280;46091;46.512;6.626;2023-04-01T05:06:38;96298.84;;;12.10;61.76
60228;BME280;46091;46.512;6.626;2023-04-01T05:08:41;96285.91;;;12.20;61.61
60228;BME280;46091;46.512;6.626;2023-04-01T05:10:44;96292.00;;;12.28;61.47
60228;BME280;46091;46.512;6.626;2023-04-01T05:12:48;96295.22;;;12.30;61.37
60228;BME280;46091;46.512;6.626;2023-04-01T05:14:51;96305.25;;;12.28;61.12
60228;BME280;46091;46.512;6.626;2023-04-01T05:16:54;96299.50;;;12.31;61.08
60228;BME280;46091;46.512;6.626;2023-04-01T05:18:57;96293.63;;;12.29;60.56
60228;BME280;46091;46.512;6.626;2023-04-01T05:21:00;96290.81;;;12.23;60.81
60228;BME280;46091;46.512;6.626;2023-04-01T05:23:03;96295.66;;;12.27;60.74
60228;BME280;46091;46.512;6.626;2023-04-01T05:25:09;96302.97;;;12.31;60.89
60228;BME280;46091;46.512;6.626;2023-04-01T05:27:12;96298.47;;;12.32;60.38
60228;BME280;46091;46.512;6.626;2023-04-01T05:29:16;96307.03;;;12.34;60.73
60228;BME280;46091;46.512;6.626;2023-04-01T05:31:19;96307.19;;;12.39;60.33
60228;BME280;46091;46.512;6.626;2023-04-01T05:33:22;96310.66;;;12.39;60.38
60228;BME280;46091;46.512;6.626;2023-04-01T05:35:25;96305.56;;;12.38;60.32
60228;BME280;46091;46.512;6.626;2023-04-01T05:37:28;96310.44;;;12.41;60.41
60228;BME280;46091;46.512;6.626;2023-04-01T05:39:31;96311.63;;;12.45;60.37
60228;BME280;46091;46.512;6.626;2023-04-01T05:41:34;96307.97;;;12.46;59.96
60228;BME280;46091;46.512;6.626;2023-04-01T05:43:38;96302.81;;;12.51;60.10
60228;BME280;46091;46.512;6.626;2023-04-01T05:45:42;96303.41;;;12.53;59.92
60228;BME280;46091;46.512;6.626;2023-04-01T05:47:45;96304.81;;;12.56;59.87
60228;BME280;46091;46.512;6.626;2023-04-01T05:49:48;96306.22;;;12.58;60.11
60228;BME280;46091;46.512;6.626;2023-04-01T05:51:51;96296.44;;;12.59;59.85
60228;BME280;46091;46.512;6.626;2023-04-01T05:53:54;96297.03;;;12.61;59.89
60228;BME280;46091;46.512;6.626;2023-04-01T05:56:01;96291.50;;;12.62;59.65
60228;BME280;46091;46.512;6.626;2023-04-01T05:58:04;96287.81;;;12.63;59.46
60228;BME280;46091;46.512;6.626;2023-04-01T06:00:07;96298.19;;;12.65;59.75
60228;BME280;46091;46.512;6.626;2023-04-01T06:02:12;96297.97;;;12.66;59.66
60228;BME280;46091;46.512;6.626;2023-04-01T06:04:16;96303.28;;;12.66;59.62
60228;BME280;46091;46.512;6.626;2023-04-01T06:06:23;96300.41;;;12.68;59.38
60228;BME280;46091;46.512;6.626;2023-04-01T06:08:28;96299.59;;;12.67;59.34
60228;BME280;46091;46.512;6.626;2023-04-01T06:10:43;96310.44;;;12.66;59.30
60228;BME280;46091;46.512;6.626;2023-04-01T06:12:57;96314.47;;;12.68;59.15
60228;BME280;46091;46.512;6.626;2023-04-01T06:15:13;96306.34;;;12.70;59.06
60228;BME280;46091;46.512;6.626;2023-04-01T06:17:28;96299.19;;;12.70;59.19
60228;BME280;46091;46.512;6.626;2023-04-01T06:19:36;96300.81;;;12.71;58.75
60228;BME280;46091;46.512;6.626;2023-04-01T06:21:56;96298.75;;;12.73;58.43
60228;BME280;46091;46.512;6.626;2023-04-01T06:24:18;96300.22;;;12.69;59.13
60228;BME280;46091;46.512;6.626;2023-04-01T06:26:30;96294.47;;;12.72;58.76
60228;BME280;46091;46.512;6.626;2023-04-01T06:31:26;96306.34;;;12.70;58.66
60228;BME280;46091;46.512;6.626;2023-04-01T06:33:46;96308.53;;;12.73;58.80
60228;BME280;46091;46.512;6.626;2023-04-01T06:36:03;96320.19;;;12.72;58.44
60228;BME280;46091;46.512;6.626;2023-04-01T06:41:24;96316.28;;;12.49;58.37
60228;BME280;46091;46.512;6.626;2023-04-01T06:43:39;96317.31;;;12.48;58.25
60228;BME280;46091;46.512;6.626;2023-04-01T06:45:53;96322.84;;;12.47;58.37
60228;BME280;46091;46.512;6.626;2023-04-01T06:48:10;96330.56;;;12.48;58.51
60228;BME280;46091;46.512;6.626;2023-04-01T06:50:24;96332.81;;;12.45;58.41
60228;BME280;46091;46.512;6.626;2023-04-01T06:52:36;96334.47;;;12.46;58.49
60228;BME280;46091;46.512;6.626;2023-04-01T06:54:47;96334.03;;;12.49;58.50
60228;BME280;46091;46.512;6.626;2023-04-01T06:56:54;96328.50;;;12.50;58.41
60228;BME280;46091;46.512;6.626;2023-04-01T06:59:02;96331.16;;;12.50;58.17
60228;BME280;46091;46.512;6.626;2023-04-01T07:01:12;96334.63;;;12.51;58.34
60228;BME280;46091;46.512;6.626;2023-04-01T07:03:20;96338.47;;;12.55;58.41
60228;BME280;46091;46.512;6.626;2023-04-01T07:05:29;96338.84;;;12.59;58.23
60228;BME280;46091;46.512;6.626;2023-04-01T07:07:35;96338.06;;;12.58;58.27
60228;BME280;46091;46.512;6.626;2023-04-01T07:09:43;96336.56;;;12.62;58.37
60228;BME280;46091;46.512;6.626;2023-04-01T07:11:52;96346.16;;;12.63;58.22
60228;BME280;46091;46.512;6.626;2023-04-01T07:14:00;96342.84;;;12.68;58.21
60228;BME280;46091;46.512;6.626;2023-04-01T07:16:11;96345.66;;;12.73;57.92
60228;BME280;46091;46.512;6.626;2023-04-01T07:18:17;96348.53;;;12.71;58.30
60228;BME280;46091;46.512;6.626;2023-04-01T07:20:25;96347.50;;;12.72;57.94
60228;BME280;46091;46.512;6.626;2023-04-01T07:22:31;96350.16;;;12.72;58.17
60228;BME280;46091;46.512;6.626;2023-04-01T07:24:39;96360.34;;;12.75;58.40
60228;BME280;46091;46.512;6.626;2023-04-01T07:26:43;96362.97;;;12.75;58.07
60228;BME280;46091;46.512;6.626;2023-04-01T07:28:46;96367.91;;;12.72;58.47
60228;BME280;46091;46.512;6.626;2023-04-01T07:30:57;96364.88;;;12.68;58.09
60228;BME280;46091;46.512;6.626;2023-04-01T07:33:04;96361.63;;;12.66;58.47
60228;BME280;46091;46.512;6.626;2023-04-01T07:35:22;96364.72;;;12.63;58.22
60228;BME280;46091;46.512;6.626;2023-04-01T07:37:31;96367.81;;;12.60;58.07
60228;BME280;46091;46.512;6.626;2023-04-01T07:39:47;96371.91;;;12.56;58.50
60228;BME280;46091;46.512;6.626;2023-04-01T07:42:00;96365.78;;;12.56;58.34
60228;BME280;46091;46.512;6.626;2023-04-01T07:44:10;96361.91;;;12.58;58.38
60228;BME280;46091;46.512;6.626;2023-04-01T07:46:33;96370.47;;;12.60;58.06
60228;BME280;46091;46.512;6.626;2023-04-01T07:48:48;96372.69;;;12.63;58.20
60228;BME280;46091;46.512;6.626;2023-04-01T07:50:59;96366.94;;;12.66;58.32
60228;BME280;46091;46.512;6.626;2023-04-01T07:53:15;96373.44;;;12.70;58.38
60228;BME280;46091;46.512;6.626;2023-04-01T07:55:27;96368.34;;;12.69;58.34
60228;BME280;46091;46.512;6.626;2023-04-01T07:57:39;96375.47;;;12.68;58.26
60228;BME280;46091;46.512;6.626;2023-04-01T07:59:53;96364.88;;;12.68;58.13
60228;BME280;46091;46.512;6.626;2023-04-01T08:02:08;96359.38;;;12.70;58.09
60228;BME280;46091;46.512;6.626;2023-04-01T08:04:23;96358.56;;;12.69;57.91
60228;BME280;46091;46.512;6.626;2023-04-01T08:06:32;96366.06;;;12.72;57.91
60228;BME280;46091;46.512;6.626;2023-04-01T08:08:47;96368.88;;;12.77;57.77
60228;BME280;46091;46.512;6.626;2023-04-01T08:10:56;96365.38;;;12.83;57.71
60228;BME280;46091;46.512;6.626;2023-04-01T08:13:05;96364.78;;;12.81;57.56
60228;BME280;46091;46.512;6.626;2023-04-01T08:15:17;96368.25;;;12.82;57.51
60228;BME280;46091;46.512;6.626;2023-04-01T08:17:30;96370.22;;;12.87;57.37
60228;BME280;46091;46.512;6.626;2023-04-01T08:19:46;96364.88;;;12.93;57.36
60228;BME280;46091;46.512;6.626;2023-04-01T08:21:57;96365.25;;;12.97;57.47
60228;BME280;46091;46.512;6.626;2023-04-01T08:24:06;96367.69;;;12.98;56.98
60228;BME280;46091;46.512;6.626;2023-04-01T08:26:18;96364.81;;;13.00;56.83
60228;BME280;46091;46.512;6.626;2023-04-01T08:28:29;96370.28;;;13.05;56.66
60228;BME280;46091;46.512;6.626;2023-04-01T08:30:39;96367.47;;;13.00;56.73
60228;BME280;46091;46.512;6.626;2023-04-01T08:32:48;96357.66;;;13.00;56.95
60228;BME280;46091;46.512;6.626;2023-04-01T08:34:59;96364.56;;;13.01;56.76
60228;BME280;46091;46.512;6.626;2023-04-01T08:37:09;96373.97;;;13.04;56.71
60228;BME280;46091;46.512;6.626;2023-04-01T08:39:17;96380.22;;;13.09;56.81
60228;BME280;46091;46.512;6.626;2023-04-01T08:41:33;96382.06;;;13.09;56.42
60228;BME280;46091;46.512;6.626;2023-04-01T08:44:09;96387.47;;;13.02;56.51
60228;BME280;46091;46.512;6.626;2023-04-01T08:46:54;96387.88;;;12.99;56.54
60228;BME280;46091;46.512;6.626;2023-04-01T08:49:18;96383.22;;;12.95;56.41
60228;BME280;46091;46.512;6.626;2023-04-01T08:54:29;96382.88;;;13.09;56.61
60228;BME280;46091;46.512;6.626;2023-04-01T08:56:41;96376.75;;;13.09;56.50
60228;BME280;46091;46.512;6.626;2023-04-01T08:58:59;96382.25;;;13.14;56.50
60228;BME280;46091;46.512;6.626;2023-04-01T09:01:14;96372.81;;;13.18;56.57
60228;BME280;46091;46.512;6.626;2023-04-01T09:03:36;96372.97;;;13.23;56.07
60228;BME280;46091;46.512;6.626;2023-04-01T09:08:34;96373.94;;;13.29;56.13
60228;BME280;46091;46.512;6.626;2023-04-01T09:11:02;96371.06;;;13.30;55.90
60228;BME280;46091;46.512;6.626;2023-04-01T09:13:29;96360.81;;;13.34;55.96
60228;BME280;46091;46.512;6.626;2023-04-01T09:15:46;96368.13;;;13.38;55.42
60228;BME280;46091;46.512;6.626;2023-04-01T09:20:42;96373.00;;;13.60;55.35
60228;BME280;46091;46.512;6.626;2023-04-01T09:23:03;96378.09;;;13.61;55.34
60228;BME280;46091;46.512;6.626;2023-04-01T09:25:34;96379.84;;;13.67;55.01
60228;BME280;46091;46.512;6.626;2023-04-01T09:27:46;96387.81;;;13.67;55.06
60228;BME280;46091;46.512;6.626;2023-04-01T09:32:53;96376.38;;;13.67;55.02
60228;BME280;46091;46.512;6.626;2023-04-01T09:35:14;96375.94;;;13.70;55.03
60228;BME280;46091;46.512;6.626;2023-04-01T09:37:34;96378.38;;;13.72;54.98
60228;BME280;46091;46.512;6.626;2023-04-01T09:39:41;96392.09;;;13.68;54.60
60228;BME280;46091;46.512;6.626;2023-04-01T09:42:01;96382.81;;;13.59;54.68
60228;BME280;46091;46.512;6.626;2023-04-01T09:44:13;96381.41;;;13.57;54.97
60228;BME280;46091;46.512;6.626;2023-04-01T09:46:25;96382.06;;;13.52;54.81
60228;BME280;46091;46.512;6.626;2023-04-01T09:51:17;96372.31;;;13.46;54.90
60228;BME280;46091;46.512;6.626;2023-04-01T09:53:37;96374.16;;;13.46;54.96
60228;BME280;46091;46.512;6.626;2023-04-01T09:59:03;96372.25;;;13.53;54.92
60228;BME280;46091;46.512;6.626;2023-04-01T10:01:42;96372.78;;;13.61;54.75
60228;BME280;46091;46.512;6.626;2023-04-01T10:11:57;96375.78;;;13.65;54.83
60228;BME280;46091;46.512;6.626;2023-04-01T10:14:36;96366.34;;;13.69;55.08
60228;BME280;46091;46.512;6.626;2023-04-01T10:17:13;96360.81;;;13.71;55.28
60228;BME280;46091;46.512;6.626;2023-04-01T10:19:49;96354.25;;;13.73;55.23
60228;BME280;46091;46.512;6.626;2023-04-01T10:22:17;96355.56;;;13.82;55.12
60228;BME280;46091;46.512;6.626;2023-04-01T10:24:58;96348.09;;;13.91;54.85
60228;BME280;46091;46.512;6.626;2023-04-01T10:32:32;96344.22;;;14.05;54.50
60228;BME280;46091;46.512;6.626;2023-04-01T10:35:18;96336.59;;;14.09;54.41
60228;BME280;46091;46.512;6.626;2023-04-01T10:40:21;96330.88;;;14.23;54.37
60228;BME280;46091;46.512;6.626;2023-04-01T10:48:12;96324.66;;;14.30;54.12
60228;BME280;46091;46.512;6.626;2023-04-01T10:50:24;96316.22;;;14.33;54.34
60228;BME280;46091;46.512;6.626;2023-04-01T10:52:56;96319.22;;;14.36;54.35
60228;BME280;46091;46.512;6.626;2023-04-01T10:55:36;96313.09;;;14.36;54.10
60228;BME280;46091;46.512;6.626;2023-04-01T11:00:37;96310.09;;;14.32;54.11
60228;BME280;46091;46.512;6.626;2023-04-01T11:03:17;96310.91;;;14.33;53.92
60228;BME280;46091;46.512;6.626;2023-04-01T11:17:08;96358.28;;;13.94;54.00
60228;BME280;46091;46.512;6.626;2023-04-01T11:21:53;96370.72;;;13.63;54.79
60228;BME280;46091;46.512;6.626;2023-04-01T11:24:16;96364.13;;;13.48;54.90
60228;BME280;46091;46.512;6.626;2023-04-01T11:26:32;96355.44;;;13.40;55.36
60228;BME280;46091;46.512;6.626;2023-04-01T11:28:54;96346.31;;;13.36;55.50
60228;BME280;46091;46.512;6.626;2023-04-01T11:31:11;96335.25;;;13.39;55.43
60228;BME280;46091;46.512;6.626;2023-04-01T11:33:25;96332.06;;;13.49;55.41
60228;BME280;46091;46.512;6.626;2023-04-01T11:35:52;96335.38;;;13.63;55.60
60228;BME280;46091;46.512;6.626;2023-04-01T11:38:06;96323.41;;;13.72;55.64
60228;BME280;46091;46.512;6.626;2023-04-01T11:40:19;96322.41;;;13.85;55.44
60228;BME280;46091;46.512;6.626;2023-04-01T11:42:35;96326.00;;;13.90;55.44
60228;BME280;46091;46.512;6.626;2023-04-01T11:44:51;96319.88;;;13.90;55.25
60228;BME280;46091;46.512;6.626;2023-04-01T11:49:37;96311.53;;;14.05;55.46
60228;BME280;46091;46.512;6.626;2023-04-01T11:51:59;96305.16;;;14.06;55.24
60228;BME280;46091;46.512;6.626;2023-04-01T11:54:18;96301.81;;;14.10;55.40
60228;BME280;46091;46.512;6.626;2023-04-01T11:56:49;96291.69;;;14.19;55.06
60228;BME280;46091;46.512;6.626;2023-04-01T11:59:13;96302.66;;;14.22;55.01
60228;BME280;46091;46.512;6.626;2023-04-01T12:01:47;96294.44;;;14.24;55.46
60228;BME280;46091;46.512;6.626;2023-04-01T12:06:35;96284.88;;;14.35;55.04
60228;BME280;46091;46.512;6.626;2023-04-01T12:08:48;96279.91;;;14.38;54.87
60228;BME280;46091;46.512;6.626;2023-04-01T12:11:00;96274.00;;;14.36;54.56
60228;BME280;46091;46.512;6.626;2023-04-01T12:13:16;96270.09;;;14.39;54.96
60228;BME280;46091;46.512;6.626;2023-04-01T12:15:28;96275.06;;;14.35;54.83
60228;BME280;46091;46.512;6.626;2023-04-01T12:17:38;96272.97;;;14.37;54.79
60228;BME280;46091;46.512;6.626;2023-04-01T12:19:47;96272.53;;;14.40;55.03
60228;BME280;46091;46.512;6.626;2023-04-01T12:22:07;96264.69;;;14.45;55.00
60228;BME280;46091;46.512;6.626;2023-04-01T12:24:37;96259.94;;;14.47;54.57
60228;BME280;46091;46.512;6.626;2023-04-01T12:26:52;96257.88;;;14.49;54.87
60228;BME280;46091;46.512;6.626;2023-04-01T12:29:03;96250.94;;;14.48;54.55
60228;BME280;46091;46.512;6.626;2023-04-01T12:31:25;96251.53;;;14.50;54.22
60228;BME280;46091;46.512;6.626;2023-04-01T12:33:51;96248.97;;;14.55;54.37
60228;BME280;46091;46.512;6.626;2023-04-01T12:36:00;96250.34;;;14.58;53.95
60228;BME280;46091;46.512;6.626;2023-04-01T12:38:20;96250.94;;;14.60;53.79
60228;BME280;46091;46.512;6.626;2023-04-01T12:40:56;96250.34;;;14.70;53.65
60228;BME280;46091;46.512;6.626;2023-04-01T12:45:45;96233.22;;;14.89;53.18
60228;BME280;46091;46.512;6.626;2023-04-01T12:53:33;96229.38;;;15.08;53.00
60228;BME280;46091;46.512;6.626;2023-04-01T12:55:41;96227.97;;;15.06;52.56
60228;BME280;46091;46.512;6.626;2023-04-01T12:58:05;96227.88;;;15.01;52.49
60228;BME280;46091;46.512;6.626;2023-04-01T13:00:25;96216.91;;;14.97;52.46
60228;BME280;46091;46.512;6.626;2023-04-01T13:02:40;96219.56;;;14.97;52.46
60228;BME280;46091;46.512;6.626;2023-04-01T13:05:12;96221.66;;;14.95;52.47
60228;BME280;46091;46.512;6.626;2023-04-01T13:07:41;96217.47;;;14.99;52.07
60228;BME280;46091;46.512;6.626;2023-04-01T13:09:53;96216.75;;;15.04;52.06
60228;BME280;46091;46.512;6.626;2023-04-01T13:12:16;96215.50;;;15.06;51.96
60228;BME280;46091;46.512;6.626;2023-04-01T13:14:42;96214.56;;;15.01;51.82
60228;BME280;46091;46.512;6.626;2023-04-01T13:16:53;96212.84;;;14.95;51.74
60228;BME280;46091;46.512;6.626;2023-04-01T13:19:04;96216.44;;;14.89;51.87
60228;BME280;46091;46.512;6.626;2023-04-01T13:21:16;96210.88;;;14.90;51.98
60228;BME280;46091;46.512;6.626;2023-04-01T13:23:33;96206.50;;;14.96;51.89
60228;BME280;46091;46.512;6.626;2023-04-01T13:25:45;96202.06;;;15.01;51.92
60228;BME280;46091;46.512;6.626;2023-04-01T13:28:02;96202.06;;;15.01;51.75
60228;BME280;46091;46.512;6.626;2023-04-01T13:30:22;96195.81;;;15.07;51.69
60228;BME280;46091;46.512;6.626;2023-04-01T13:32:34;96193.81;;;15.14;51.53
60228;BME280;46091;46.512;6.626;2023-04-01T13:34:59;96189.88;;;15.17;51.51
60228;BME280;46091;46.512;6.626;2023-04-01T13:37:18;96181.66;;;15.19;51.49
60228;BME280;46091;46.512;6.626;2023-04-01T13:39:51;96180.25;;;15.16;51.21
60228;BME280;46091;46.512;6.626;2023-04-01T13:42:11;96177.72;;;15.21;51.53
60228;BME280;46091;46.512;6.626;2023-04-01T13:44:21;96173.19;;;15.22;51.43
60228;BME280;46091;46.512;6.626;2023-04-01T13:46:39;96170.53;;;15.22;51.37
60228;BME280;46091;46.512;6.626;2023-04-01T13:49:04;96171.59;;;15.21;51.05
60228;BME280;46091;46.512;6.626;2023-04-01T13:54:37;96163.34;;;15.22;51.10
60228;BME280;46091;46.512;6.626;2023-04-01T13:56:56;96162.06;;;15.25;50.99
60228;BME280;46091;46.512;6.626;2023-04-01T13:59:12;96158.91;;;15.28;50.78
60228;BME280;46091;46.512;6.626;2023-04-01T14:01:30;96162.97;;;15.30;50.90
60228;BME280;46091;46.512;6.626;2023-04-01T14:03:45;96157.88;;;15.29;50.71
60228;BME280;46091;46.512;6.626;2023-04-01T14:06:13;96162.63;;;15.27;50.61
60228;BME280;46091;46.512;6.626;2023-04-01T14:08:29;96158.34;;;15.26;50.60
60228;BME280;46091;46.512;6.626;2023-04-01T14:10:40;96160.44;;;15.24;50.83
60228;BME280;46091;46.512;6.626;2023-04-01T14:12:51;96156.41;;;15.21;50.62
60228;BME280;46091;46.512;6.626;2023-04-01T14:15:21;96156.09;;;15.18;50.67
60228;BME280;46091;46.512;6.626;2023-04-01T14:17:41;96153.00;;;15.09;50.45
60228;BME280;46091;46.512;6.626;2023-04-01T14:20:06;96160.03;;;15.03;50.76
60228;BME280;46091;46.512;6.626;2023-04-01T14:22:20;96156.13;;;14.94;50.49
60228;BME280;46091;46.512;6.626;2023-04-01T14:24:40;96162.41;;;14.88;50.64
60228;BME280;46091;46.512;6.626;2023-04-01T14:27:31;96160.81;;;14.87;50.58
60228;BME280;46091;46.512;6.626;2023-04-01T14:29:48;96162.19;;;14.90;50.34
60228;BME280;46091;46.512;6.626;2023-04-01T14:32:03;96154.53;;;14.93;50.45
60228;BME280;46091;46.512;6.626;2023-04-01T14:34:18;96155.56;;;14.92;50.18
60228;BME280;46091;46.512;6.626;2023-04-01T14:36:49;96147.25;;;14.89;50.52
60228;BME280;46091;46.512;6.626;2023-04-01T14:39:00;96150.72;;;14.89;50.35
60228;BME280;46091;46.512;6.626;2023-04-01T14:41:19;96136.13;;;14.92;50.38
60228;BME280;46091;46.512;6.626;2023-04-01T14:43:43;96146.78;;;14.92;50.36
60228;BME280;46091;46.512;6.626;2023-04-01T14:46:06;96145.16;;;14.91;50.50
60228;BME280;46091;46.512;6.626;2023-04-01T14:48:21;96150.00;;;14.94;50.27
60228;BME280;46091;46.512;6.626;2023-04-01T14:50:28;96150.47;;;14.91;50.45
60228;BME280;46091;46.512;6.626;2023-04-01T14:52:35;96155.59;;;14.80;50.59
60228;BME280;46091;46.512;6.626;2023-04-01T14:54:41;96160.38;;;14.67;50.68
60228;BME280;46091;46.512;6.626;2023-04-01T14:56:48;96170.13;;;14.61;50.98
60228;BME280;46091;46.512;6.626;2023-04-01T14:58:57;96172.41;;;14.57;51.01
60228;BME280;46091;46.512;6.626;2023-04-01T15:01:12;96165.50;;;14.45;50.83
60228;BME280;46091;46.512;6.626;2023-04-01T15:03:22;96168.69;;;14.35;51.11
60228;BME280;46091;46.512;6.626;2023-04-01T15:05:32;96160.47;;;14.25;51.30
60228;BME280;46091;46.512;6.626;2023-04-01T15:07:58;96168.47;;;14.25;51.53
60228;BME280;46091;46.512;6.626;2023-04-01T15:10:10;96164.19;;;14.24;51.49
60228;BME280;46091;46.512;6.626;2023-04-01T15:12:27;96165.13;;;14.18;51.72
60228;BME280;46091;46.512;6.626;2023-04-01T15:14:43;96167.22;;;14.16;51.83
60228;BME280;46091;46.512;6.626;2023-04-01T15:16:55;96166.16;;;14.17;51.69
60228;BME280;46091;46.512;6.626;2023-04-01T15:19:12;96164.09;;;14.19;52.00
60228;BME280;46091;46.512;6.626;2023-04-01T15:21:43;96159.91;;;14.23;51.94
60228;BME280;46091;46.512;6.626;2023-04-01T15:23:50;96160.63;;;14.30;51.88
60228;BME280;46091;46.512;6.626;2023-04-01T15:26:13;96154.81;;;14.33;51.98
60228;BME280;46091;46.512;6.626;2023-04-01T15:28:26;96149.59;;;14.38;52.00
60228;BME280;46091;46.512;6.626;2023-04-01T15:30:35;96157.38;;;14.40;52.02
60228;BME280;46091;46.512;6.626;2023-04-01T15:32:46;96154.72;;;14.40;52.20
60228;BME280;46091;46.512;6.626;2023-04-01T15:34:57;96152.75;;;14.35;52.14
60228;BME280;46091;46.512;6.626;2023-04-01T15:37:08;96147.56;;;14.40;52.27
60228;BME280;46091;46.512;6.626;2023-04-01T15:39:22;96145.69;;;14.41;52.31
60228;BME280;46091;46.512;6.626;2023-04-01T15:41:36;96144.88;;;14.40;52.09
60228;BME280;46091;46.512;6.626;2023-04-01T15:43:45;96136.00;;;14.46;52.17
60228;BME280;46091;46.512;6.626;2023-04-01T15:45:58;96140.63;;;14.51;51.91
60228;BME280;46091;46.512;6.626;2023-04-01T15:48:24;96148.13;;;14.54;52.13
60228;BME280;46091;46.512;6.626;2023-04-01T15:50:45;96148.94;;;14.54;52.01
60228;BME280;46091;46.512;6.626;2023-04-01T15:53:00;96136.94;;;14.52;52.09
60228;BME280;46091;46.512;6.626;2023-04-01T15:55:20;96147.19;;;14.48;52.27
60228;BME280;46091;46.512;6.626;2023-04-01T15:57:35;96153.09;;;14.39;52.36
60228;BME280;46091;46.512;6.626;2023-04-01T16:00:19;96149.19;;;14.30;52.23
60228;BME280;46091;46.512;6.626;2023-04-01T16:02:31;96144.19;;;14.21;52.44
60228;BME280;46091;46.512;6.626;2023-04-01T16:04:46;96142.81;;;14.19;52.58
60228;BME280;46091;46.512;6.626;2023-04-01T16:07:02;96144.91;;;14.17;52.53
60228;BME280;46091;46.512;6.626;2023-04-01T16:11:47;96140.41;;;14.17;52.72
60228;BME280;46091;46.512;6.626;2023-04-01T16:14:09;96137.13;;;14.15;52.60
60228;BME280;46091;46.512;6.626;2023-04-01T16:16:23;96151.03;;;14.17;52.62
60228;BME280;46091;46.512;6.626;2023-04-01T16:18:57;96147.91;;;14.20;52.56
60228;BME280;46091;46.512;6.626;2023-04-01T16:21:11;96148.47;;;14.22;52.58
60228;BME280;46091;46.512;6.626;2023-04-01T16:23:20;96139.13;;;14.20;52.37
60228;BME280;46091;46.512;6.626;2023-04-01T16:25:32;96146.84;;;14.21;52.48
60228;BME280;46091;46.512;6.626;2023-04-01T16:27:42;96150.56;;;14.20;52.53
60228;BME280;46091;46.512;6.626;2023-04-01T16:29:49;96158.75;;;14.19;52.31
60228;BME280;46091;46.512;6.626;2023-04-01T16:32:02;96153.69;;;14.17;52.32
60228;BME280;46091;46.512;6.626;2023-04-01T16:34:11;96146.97;;;14.15;52.46
60228;BME280;46091;46.512;6.626;2023-04-01T16:36:26;96146.16;;;14.14;52.50
60228;BME280;46091;46.512;6.626;2023-04-01T16:38:36;96155.16;;;14.13;52.24
60228;BME280;46091;46.512;6.626;2023-04-01T16:40:58;96157.25;;;14.11;52.52
60228;BME280;46091;46.512;6.626;2023-04-01T16:43:15;96150.31;;;14.10;52.41
60228;BME280;46091;46.512;6.626;2023-04-01T16:45:32;96154.25;;;14.08;52.25
60228;BME280;46091;46.512;6.626;2023-04-01T16:47:41;96151.22;;;14.04;52.53
60228;BME280;46091;46.512;6.626;2023-04-01T16:49:53;96147.19;;;14.02;52.45
60228;BME280;46091;46.512;6.626;2023-04-01T16:52:13;96152.75;;;14.00;52.17
60228;BME280;46091;46.512;6.626;2023-04-01T16:54:27;96160.38;;;13.96;52.09
60228;BME280;46091;46.512;6.626;2023-04-01T16:56:39;96160.38;;;13.96;52.51
60228;BME280;46091;46.512;6.626;2023-04-01T16:59:01;96164.63;;;13.97;52.35
60228;BME280;46091;46.512;6.626;2023-04-01T17:01:12;96161.19;;;13.97;52.50
60228;BME280;46091;46.512;6.626;2023-04-01T17:03:21;96162.22;;;13.96;52.28
60228;BME280;46091;46.512;6.626;2023-04-01T17:05:38;96159.56;;;13.96;52.23
60228;BME280;46091;46.512;6.626;2023-04-01T17:07:48;96163.03;;;13.96;52.41
60228;BME280;46091;46.512;6.626;2023-04-01T17:10:13;96157.72;;;13.96;52.59
60228;BME280;46091;46.512;6.626;2023-04-01T17:12:26;96163.25;;;13.95;52.70
60228;BME280;46091;46.512;6.626;2023-04-01T17:14:35;96169.25;;;13.90;52.66
60228;BME280;46091;46.512;6.626;2023-04-01T17:16:56;96180.00;;;13.84;52.84
60228;BME280;46091;46.512;6.626;2023-04-01T17:19:14;96181.47;;;13.80;52.63
60228;BME280;46091;46.512;6.626;2023-04-01T17:21:47;96184.00;;;13.75;52.93
60228;BME280;46091;46.512;6.626;2023-04-01T17:24:01;96190.22;;;13.68;
60228;BME280;46091;46.512;6.626;2023-04-01T17:26:20;96185.59;;;13.64;53.11
60228;BME280;46091;46.512;6.626;2023-04-01T17:28:36;96180.59;;;13.56;53.08
60228;BME280;46091;46.512;6.626;2023-04-01T17:30:50;96187.41;;;13.52;53.13
60228;BME280;46091;46.512;6.626;2023-04-01T17:33:10;96183.94;;;13.51;53.09
60228;BME280;46091;46.512;6.626;2023-04-01T17:35:19;96193.75;;;13.51;53.11
60228;BME280;46091;46.512;6.626;2023-04-01T17:37:36;96194.19;;;13.48;53.25
60228;BME280;46091;46.512;6.626;2023-04-01T17:39:59;96195.34;;;13.40;53.40
60228;BME280;46091;46.512;6.626;2023-04-01T17:42:07;96196.59;;;13.37;53.20
60228;BME280;46091;46.512;6.626;2023-04-01T17:44:23;96207.66;;;13.34;53.48
60228;BME280;46091;46.512;6.626;2023-04-01T17:46:50;96211.22;;;13.28;53.59
60228;BME280;46091;46.512;6.626;2023-04-01T17:49:03;96219.47;;;13.20;53.48
60228;BME280;46091;46.512;6.626;2023-04-01T17:51:24;96223.59;;;13.16;53.53
60228;BME280;46091;46.512;6.626;2023-04-01T17:53:36;96233.00;;;13.12;53.85
60228;BME280;46091;46.512;6.626;2023-04-01T17:55:55;96239.59;;;13.09;53.70
60228;BME280;46091;46.512;6.626;2023-04-01T17:58:05;96236.34;;;13.07;53.92
60228;BME280;46091;46.512;6.626;2023-04-01T18:00:18;96239.00;;;13.07;53.83
60228;BME280;46091;46.512;6.626;2023-04-01T18:02:32;96249.38;;;13.09;53.74
60228;BME280;46091;46.512;6.626;2023-04-01T18:05:01;96244.53;;;13.06;54.08
60228;BME280;46091;46.512;6.626;2023-04-01T18:07:18;96249.47;;;13.02;54.12
60228;BME280;46091;46.512;6.626;2023-04-01T18:09:32;96251.53;;;13.00;54.01
60228;BME280;46091;46.512;6.626;2023-04-01T18:11:46;96250.28;;;13.03;54.10